sensor_id;sensor_type;location;lat;lon;timestamp;temperature;humidity
47354;DHT22;50657;48.830;2.282;2023-02-05T00:00:50;22.20;50.00
47354;DHT22;50657;48.830;2.282;2023-02-05T00:03:17;22.10;49.80
47354;DHT22;50657;48.830;2.282;2023-02-05T00:05:44;22.10;49.60
47354;DHT22;50657;48.830;2.282;2023-02-05T00:08:11;22.10;49.40
47354;DHT22;50657;48.830;2.282;2023-02-05T00:10:38;22.10;49.30
47354;DHT22;50657;48.830;2.282;2023-02-05T00:13:05;22.10;49.00
47354;DHT22;50657;48.830;2.282;2023-02-05T00:15:38;22.10;48.90
47354;DHT22;50657;48.830;2.282;2023-02-05T00:18:06;22.10;48.70
47354;DHT22;50657;48.830;2.282;2023-02-05T00:20:33;22.00;48.60
47354;DHT22;50657;48.830;2.282;2023-02-05T00:23:01;22.00;48.30
47354;DHT22;50657;48.830;2.282;2023-02-05T00:25:28;22.00;48.20
47354;DHT22;50657;48.830;2.282;2023-02-05T00:27:55;22.00;48.10
47354;DHT22;50657;48.830;2.282;2023-02-05T00:30:23;21.90;47.90
47354;DHT22;50657;48.830;2.282;2023-02-05T00:32:51;21.90;47.70
47354;DHT22;50657;48.830;2.282;2023-02-05T00:35:18;21.90;47.50
47354;DHT22;50657;48.830;2.282;2023-02-05T00:37:45;21.80;47.40
47354;DHT22;50657;48.830;2.282;2023-02-05T00:40:12;21.80;47.50
47354;DHT22;50657;48.830;2.282;2023-02-05T00:42:40;21.80;47.30
47354;DHT22;50657;48.830;2.282;2023-02-05T00:45:11;21.80;47.30
47354;DHT22;50657;48.830;2.282;2023-02-05T00:47:38;21.70;47.70
47354;DHT22;50657;48.830;2.282;2023-02-05T00:50:07;21.70;47.40
47354;DHT22;50657;48.830;2.282;2023-02-05T00:52:36;21.70;47.40
47354;DHT22;50657;48.830;2.282;2023-02-05T00:55:04;21.70;47.30
47354;DHT22;50657;48.830;2.282;2023-02-05T00:57:34;21.70;47.40
47354;DHT22;50657;48.830;2.282;2023-02-05T01:00:01;21.60;47.10
47354;DHT22;50657;48.830;2.282;2023-02-05T01:02:33;21.60;47.20
47354;DHT22;50657;48.830;2.282;2023-02-05T01:05:00;21.60;47.10
47354;DHT22;50657;48.830;2.282;2023-02-05T01:07:30;21.50;47.00
47354;DHT22;50657;48.830;2.282;2023-02-05T01:09:57;21.50;47.00
47354;DHT22;50657;48.830;2.282;2023-02-05T01:12:25;21.50;46.90
47354;DHT22;50657;48.830;2.282;2023-02-05T01:14:52;21.50;46.80
47354;DHT22;50657;48.830;2.282;2023-02-05T01:17:19;21.40;46.80
47354;DHT22;50657;48.830;2.282;2023-02-05T01:19:48;21.40;46.80
47354;DHT22;50657;48.830;2.282;2023-02-05T01:22:19;21.40;46.70
47354;DHT22;50657;48.830;2.282;2023-02-05T01:24:49;21.30;46.70
47354;DHT22;50657;48.830;2.282;2023-02-05T01:27:16;21.30;46.60
47354;DHT22;50657;48.830;2.282;2023-02-05T01:29:44;21.30;46.70
47354;DHT22;50657;48.830;2.282;2023-02-05T01:32:14;21.20;46.70
47354;DHT22;50657;48.830;2.282;2023-02-05T01:34:42;21.20;46.70
47354;DHT22;50657;48.830;2.282;2023-02-05T01:37:09;21.20;46.70
47354;DHT22;50657;48.830;2.282;2023-02-05T01:39:37;21.20;46.70
47354;DHT22;50657;48.830;2.282;2023-02-05T01:42:17;21.10;46.80
47354;DHT22;50657;48.830;2.282;2023-02-05T01:47:52;21.10;46.80
47354;DHT22;50657;48.830;2.282;2023-02-05T01:50:25;21.10;47.00
47354;DHT22;50657;48.830;2.282;2023-02-05T01:52:53;21.00;47.00
47354;DHT22;50657;48.830;2.282;2023-02-05T01:55:21;21.00;47.00
47354;DHT22;50657;48.830;2.282;2023-02-05T01:57:51;21.00;46.90
47354;DHT22;50657;48.830;2.282;2023-02-05T02:00:19;21.00;47.00
47354;DHT22;50657;48.830;2.282;2023-02-05T02:02:48;20.90;46.90
47354;DHT22;50657;48.830;2.282;2023-02-05T02:05:17;20.90;46.90
47354;DHT22;50657;48.830;2.282;2023-02-05T02:07:44;20.90;47.10
47354;DHT22;50657;48.830;2.282;2023-02-05T02:10:13;20.90;47.20
47354;DHT22;50657;48.830;2.282;2023-02-05T02:12:43;20.90;47.20
47354;DHT22;50657;48.830;2.282;2023-02-05T02:15:16;20.90;47.20
47354;DHT22;50657;48.830;2.282;2023-02-05T02:17:48;20.80;47.10
47354;DHT22;50657;48.830;2.282;2023-02-05T02:20:18;20.90;47.20
47354;DHT22;50657;48.830;2.282;2023-02-05T02:23:10;20.80;47.10
47354;DHT22;50657;48.830;2.282;2023-02-05T02:25:48;20.80;47.10
47354;DHT22;50657;48.830;2.282;2023-02-05T02:28:26;20.80;47.20
47354;DHT22;50657;48.830;2.282;2023-02-05T02:30:59;20.70;47.10
47354;DHT22;50657;48.830;2.282;2023-02-05T02:33:41;20.70;47.20
47354;DHT22;50657;48.830;2.282;2023-02-05T02:36:14;20.70;47.40
47354;DHT22;50657;48.830;2.282;2023-02-05T02:38:49;20.70;47.30
47354;DHT22;50657;48.830;2.282;2023-02-05T02:41:24;20.70;47.40
47354;DHT22;50657;48.830;2.282;2023-02-05T02:43:56;20.70;47.50
47354;DHT22;50657;48.830;2.282;2023-02-05T02:46:30;20.70;47.50
47354;DHT22;50657;48.830;2.282;2023-02-05T02:49:06;20.60;48.00
47354;DHT22;50657;48.830;2.282;2023-02-05T02:51:36;20.60;47.40
47354;DHT22;50657;48.830;2.282;2023-02-05T02:54:13;20.60;47.50
47354;DHT22;50657;48.830;2.282;2023-02-05T02:56:46;20.60;47.20
47354;DHT22;50657;48.830;2.282;2023-02-05T02:59:17;20.60;47.30
47354;DHT22;50657;48.830;2.282;2023-02-05T03:01:50;20.50;47.30
47354;DHT22;50657;48.830;2.282;2023-02-05T03:04:23;20.50;47.40
47354;DHT22;50657;48.830;2.282;2023-02-05T03:06:53;20.50;47.50
47354;DHT22;50657;48.830;2.282;2023-02-05T03:09:25;20.50;47.30
47354;DHT22;50657;48.830;2.282;2023-02-05T03:11:57;20.50;48.00
47354;DHT22;50657;48.830;2.282;2023-02-05T03:14:26;20.50;47.40
47354;DHT22;50657;48.830;2.282;2023-02-05T03:16:55;20.50;47.90
47354;DHT22;50657;48.830;2.282;2023-02-05T03:19:25;20.40;47.40
47354;DHT22;50657;48.830;2.282;2023-02-05T03:21:55;20.40;47.40
47354;DHT22;50657;48.830;2.282;2023-02-05T03:24:24;20.40;47.40
47354;DHT22;50657;48.830;2.282;2023-02-05T03:26:52;20.40;47.60
47354;DHT22;50657;48.830;2.282;2023-02-05T03:29:27;20.40;47.40
47354;DHT22;50657;48.830;2.282;2023-02-05T03:32:07;20.40;47.40
47354;DHT22;50657;48.830;2.282;2023-02-05T03:34:45;20.40;47.30
47354;DHT22;50657;48.830;2.282;2023-02-05T03:37:22;20.40;47.40
47354;DHT22;50657;48.830;2.282;2023-02-05T03:39:58;20.30;47.70
47354;DHT22;50657;48.830;2.282;2023-02-05T03:42:38;20.30;47.60
47354;DHT22;50657;48.830;2.282;2023-02-05T03:45:28;20.30;47.60
47354;DHT22;50657;48.830;2.282;2023-02-05T03:48:27;20.30;47.70
47354;DHT22;50657;48.830;2.282;2023-02-05T03:51:09;20.30;47.80
47354;DHT22;50657;48.830;2.282;2023-02-05T03:53:45;20.30;47.90
47354;DHT22;50657;48.830;2.282;2023-02-05T03:56:18;20.30;47.90
47354;DHT22;50657;48.830;2.282;2023-02-05T03:58:48;20.20;47.90
47354;DHT22;50657;48.830;2.282;2023-02-05T04:01:24;20.20;47.90
47354;DHT22;50657;48.830;2.282;2023-02-05T04:03:51;20.20;47.70
47354;DHT22;50657;48.830;2.282;2023-02-05T04:06:18;20.20;47.80
47354;DHT22;50657;48.830;2.282;2023-02-05T04:08:47;20.20;47.70
47354;DHT22;50657;48.830;2.282;2023-02-05T04:11:14;20.20;47.90
47354;DHT22;50657;48.830;2.282;2023-02-05T04:13:43;20.20;47.80
47354;DHT22;50657;48.830;2.282;2023-02-05T04:16:11;20.20;47.90
47354;DHT22;50657;48.830;2.282;2023-02-05T04:18:40;20.20;48.00
47354;DHT22;50657;48.830;2.282;2023-02-05T04:21:07;20.20;48.20
47354;DHT22;50657;48.830;2.282;2023-02-05T04:23:37;20.20;48.00
47354;DHT22;50657;48.830;2.282;2023-02-05T04:26:05;20.20;48.10
47354;DHT22;50657;48.830;2.282;2023-02-05T04:28:38;20.10;48.20
47354;DHT22;50657;48.830;2.282;2023-02-05T04:31:07;20.10;48.20
47354;DHT22;50657;48.830;2.282;2023-02-05T04:33:35;20.10;48.20
47354;DHT22;50657;48.830;2.282;2023-02-05T04:36:04;20.10;48.20
47354;DHT22;50657;48.830;2.282;2023-02-05T04:38:35;20.10;48.30
47354;DHT22;50657;48.830;2.282;2023-02-05T04:41:02;20.10;48.40
47354;DHT22;50657;48.830;2.282;2023-02-05T04:43:30;20.10;48.40
47354;DHT22;50657;48.830;2.282;2023-02-05T04:45:58;20.10;48.50
47354;DHT22;50657;48.830;2.282;2023-02-05T04:48:30;20.10;48.60
47354;DHT22;50657;48.830;2.282;2023-02-05T04:51:06;20.10;48.70
47354;DHT22;50657;48.830;2.282;2023-02-05T04:53:35;20.10;48.80
47354;DHT22;50657;48.830;2.282;2023-02-05T04:56:04;20.10;48.80
47354;DHT22;50657;48.830;2.282;2023-02-05T04:58:31;20.10;48.90
47354;DHT22;50657;48.830;2.282;2023-02-05T05:00:58;20.10;48.90
47354;DHT22;50657;48.830;2.282;2023-02-05T05:03:27;20.10;49.00
47354;DHT22;50657;48.830;2.282;2023-02-05T05:05:54;20.10;49.00
47354;DHT22;50657;48.830;2.282;2023-02-05T05:08:27;20.10;49.10
47354;DHT22;50657;48.830;2.282;2023-02-05T05:10:54;20.10;49.20
47354;DHT22;50657;48.830;2.282;2023-02-05T05:13:21;20.10;49.80
47354;DHT22;50657;48.830;2.282;2023-02-05T05:15:52;20.10;49.30
47354;DHT22;50657;48.830;2.282;2023-02-05T05:18:21;20.00;49.20
47354;DHT22;50657;48.830;2.282;2023-02-05T05:20:48;20.00;49.10
47354;DHT22;50657;48.830;2.282;2023-02-05T05:23:17;20.00;49.20
47354;DHT22;50657;48.830;2.282;2023-02-05T05:25:48;20.10;49.10
47354;DHT22;50657;48.830;2.282;2023-02-05T05:28:15;20.00;49.10
47354;DHT22;50657;48.830;2.282;2023-02-05T05:30:45;20.10;49.10
47354;DHT22;50657;48.830;2.282;2023-02-05T05:33:12;20.00;49.00
47354;DHT22;50657;48.830;2.282;2023-02-05T05:35:40;20.00;49.00
47354;DHT22;50657;48.830;2.282;2023-02-05T05:38:09;20.00;48.90
47354;DHT22;50657;48.830;2.282;2023-02-05T05:40:38;19.90;49.00
47354;DHT22;50657;48.830;2.282;2023-02-05T05:43:28;20.00;49.20
47354;DHT22;50657;48.830;2.282;2023-02-05T05:46:13;20.00;49.10
47354;DHT22;50657;48.830;2.282;2023-02-05T05:48:42;19.90;49.20
47354;DHT22;50657;48.830;2.282;2023-02-05T05:51:09;20.00;49.20
47354;DHT22;50657;48.830;2.282;2023-02-05T05:53:36;20.00;49.10
47354;DHT22;50657;48.830;2.282;2023-02-05T05:56:04;20.00;49.10
47354;DHT22;50657;48.830;2.282;2023-02-05T05:58:33;20.00;49.10
47354;DHT22;50657;48.830;2.282;2023-02-05T06:01:03;20.00;49.10
47354;DHT22;50657;48.830;2.282;2023-02-05T06:03:32;20.00;49.20
47354;DHT22;50657;48.830;2.282;2023-02-05T06:06:00;19.90;49.00
47354;DHT22;50657;48.830;2.282;2023-02-05T06:08:27;19.90;49.00
47354;DHT22;50657;48.830;2.282;2023-02-05T06:10:57;19.90;48.90
47354;DHT22;50657;48.830;2.282;2023-02-05T06:13:25;20.00;48.90
47354;DHT22;50657;48.830;2.282;2023-02-05T06:15:53;19.90;48.80
47354;DHT22;50657;48.830;2.282;2023-02-05T06:18:21;19.90;48.60
47354;DHT22;50657;48.830;2.282;2023-02-05T06:20:50;19.90;48.80
47354;DHT22;50657;48.830;2.282;2023-02-05T06:23:18;19.90;48.70
47354;DHT22;50657;48.830;2.282;2023-02-05T06:25:47;19.90;48.70
47354;DHT22;50657;48.830;2.282;2023-02-05T06:28:14;19.90;48.90
47354;DHT22;50657;48.830;2.282;2023-02-05T06:30:45;19.90;49.00
47354;DHT22;50657;48.830;2.282;2023-02-05T06:33:13;19.90;49.20
47354;DHT22;50657;48.830;2.282;2023-02-05T06:35:43;19.90;49.30
47354;DHT22;50657;48.830;2.282;2023-02-05T06:38:12;19.90;49.20
47354;DHT22;50657;48.830;2.282;2023-02-05T06:40:39;19.90;49.30
47354;DHT22;50657;48.830;2.282;2023-02-05T06:43:07;19.90;49.40
47354;DHT22;50657;48.830;2.282;2023-02-05T06:45:34;19.90;49.60
47354;DHT22;50657;48.830;2.282;2023-02-05T06:48:05;19.90;49.50
47354;DHT22;50657;48.830;2.282;2023-02-05T06:50:36;19.90;49.50
47354;DHT22;50657;48.830;2.282;2023-02-05T06:53:04;19.90;49.50
47354;DHT22;50657;48.830;2.282;2023-02-05T06:55:32;19.90;49.60
47354;DHT22;50657;48.830;2.282;2023-02-05T06:58:01;19.90;49.60
47354;DHT22;50657;48.830;2.282;2023-02-05T07:00:31;19.90;49.60
47354;DHT22;50657;48.830;2.282;2023-02-05T07:02:58;19.90;49.60
47354;DHT22;50657;48.830;2.282;2023-02-05T07:05:25;19.90;49.60
47354;DHT22;50657;48.830;2.282;2023-02-05T07:07:53;19.90;49.50
47354;DHT22;50657;48.830;2.282;2023-02-05T07:10:20;19.90;49.50
47354;DHT22;50657;48.830;2.282;2023-02-05T07:12:47;19.90;49.50
47354;DHT22;50657;48.830;2.282;2023-02-05T07:15:14;19.90;49.60
47354;DHT22;50657;48.830;2.282;2023-02-05T07:17:41;19.90;49.50
47354;DHT22;50657;48.830;2.282;2023-02-05T07:20:10;19.90;49.40
47354;DHT22;50657;48.830;2.282;2023-02-05T07:22:39;19.90;49.60
47354;DHT22;50657;48.830;2.282;2023-02-05T07:25:08;19.90;49.90
47354;DHT22;50657;48.830;2.282;2023-02-05T07:27:35;19.90;49.90
47354;DHT22;50657;48.830;2.282;2023-02-05T07:30:02;19.90;50.00
47354;DHT22;50657;48.830;2.282;2023-02-05T07:32:30;19.90;49.90
47354;DHT22;50657;48.830;2.282;2023-02-05T07:34:57;19.90;50.00
47354;DHT22;50657;48.830;2.282;2023-02-05T07:37:24;19.90;50.10
47354;DHT22;50657;48.830;2.282;2023-02-05T07:39:51;19.90;50.20
47354;DHT22;50657;48.830;2.282;2023-02-05T07:42:21;19.90;50.90
47354;DHT22;50657;48.830;2.282;2023-02-05T07:44:55;19.90;50.40
47354;DHT22;50657;48.830;2.282;2023-02-05T07:47:22;19.90;50.50
47354;DHT22;50657;48.830;2.282;2023-02-05T07:49:49;19.90;50.40
47354;DHT22;50657;48.830;2.282;2023-02-05T07:52:17;20.00;50.40
47354;DHT22;50657;48.830;2.282;2023-02-05T07:54:44;19.90;50.60
47354;DHT22;50657;48.830;2.282;2023-02-05T07:57:12;20.00;51.00
47354;DHT22;50657;48.830;2.282;2023-02-05T07:59:41;20.00;51.20
47354;DHT22;50657;48.830;2.282;2023-02-05T08:02:10;20.00;51.30
47354;DHT22;50657;48.830;2.282;2023-02-05T08:04:37;20.00;51.60
47354;DHT22;50657;48.830;2.282;2023-02-05T08:07:05;20.00;51.70
47354;DHT22;50657;48.830;2.282;2023-02-05T08:09:33;20.00;52.40
47354;DHT22;50657;48.830;2.282;2023-02-05T08:12:01;20.00;51.80
47354;DHT22;50657;48.830;2.282;2023-02-05T08:14:29;20.00;51.60
47354;DHT22;50657;48.830;2.282;2023-02-05T08:16:58;20.00;51.40
47354;DHT22;50657;48.830;2.282;2023-02-05T08:19:29;20.00;51.20
47354;DHT22;50657;48.830;2.282;2023-02-05T08:21:56;20.00;51.00
47354;DHT22;50657;48.830;2.282;2023-02-05T08:24:23;20.00;50.90
47354;DHT22;50657;48.830;2.282;2023-02-05T08:26:50;20.00;50.80
47354;DHT22;50657;48.830;2.282;2023-02-05T08:29:18;20.10;50.70
47354;DHT22;50657;48.830;2.282;2023-02-05T08:31:47;20.00;50.50
47354;DHT22;50657;48.830;2.282;2023-02-05T08:34:15;20.00;50.40
47354;DHT22;50657;48.830;2.282;2023-02-05T08:36:42;20.00;50.30
47354;DHT22;50657;48.830;2.282;2023-02-05T08:39:10;20.00;50.20
47354;DHT22;50657;48.830;2.282;2023-02-05T08:41:37;20.00;50.00
47354;DHT22;50657;48.830;2.282;2023-02-05T08:44:06;20.00;49.90
47354;DHT22;50657;48.830;2.282;2023-02-05T08:46:35;20.00;49.80
47354;DHT22;50657;48.830;2.282;2023-02-05T08:49:05;20.00;49.70
47354;DHT22;50657;48.830;2.282;2023-02-05T08:51:33;20.00;49.70
47354;DHT22;50657;48.830;2.282;2023-02-05T08:54:01;20.00;49.50
47354;DHT22;50657;48.830;2.282;2023-02-05T08:56:30;20.00;49.50
47354;DHT22;50657;48.830;2.282;2023-02-05T08:58:57;20.00;49.40
47354;DHT22;50657;48.830;2.282;2023-02-05T09:01:24;20.00;49.30
47354;DHT22;50657;48.830;2.282;2023-02-05T09:03:52;20.00;49.20
47354;DHT22;50657;48.830;2.282;2023-02-05T09:06:19;20.00;49.20
47354;DHT22;50657;48.830;2.282;2023-02-05T09:08:50;20.00;49.10
47354;DHT22;50657;48.830;2.282;2023-02-05T09:11:19;20.10;49.10
47354;DHT22;50657;48.830;2.282;2023-02-05T09:13:47;20.00;49.00
47354;DHT22;50657;48.830;2.282;2023-02-05T09:16:14;20.00;48.90
47354;DHT22;50657;48.830;2.282;2023-02-05T09:18:45;20.00;48.90
47354;DHT22;50657;48.830;2.282;2023-02-05T09:21:12;20.00;48.80
47354;DHT22;50657;48.830;2.282;2023-02-05T09:23:39;20.00;48.80
47354;DHT22;50657;48.830;2.282;2023-02-05T09:26:07;20.00;48.70
47354;DHT22;50657;48.830;2.282;2023-02-05T09:28:37;20.00;48.70
47354;DHT22;50657;48.830;2.282;2023-02-05T09:31:05;20.00;48.60
47354;DHT22;50657;48.830;2.282;2023-02-05T09:33:34;20.00;48.60
47354;DHT22;50657;48.830;2.282;2023-02-05T09:36:06;20.00;48.50
47354;DHT22;50657;48.830;2.282;2023-02-05T09:38:34;20.00;48.40
47354;DHT22;50657;48.830;2.282;2023-02-05T09:41:09;20.00;48.40
47354;DHT22;50657;48.830;2.282;2023-02-05T09:43:46;20.00;48.40
47354;DHT22;50657;48.830;2.282;2023-02-05T09:46:23;20.00;48.40
47354;DHT22;50657;48.830;2.282;2023-02-05T09:48:56;20.00;48.40
47354;DHT22;50657;48.830;2.282;2023-02-05T09:51:33;20.00;48.50
47354;DHT22;50657;48.830;2.282;2023-02-05T09:54:09;19.90;48.30
47354;DHT22;50657;48.830;2.282;2023-02-05T09:56:42;19.90;48.30
47354;DHT22;50657;48.830;2.282;2023-02-05T09:59:13;20.00;48.40
47354;DHT22;50657;48.830;2.282;2023-02-05T10:01:45;20.00;48.30
47354;DHT22;50657;48.830;2.282;2023-02-05T10:04:14;20.00;48.30
47354;DHT22;50657;48.830;2.282;2023-02-05T10:06:51;20.00;48.30
47354;DHT22;50657;48.830;2.282;2023-02-05T10:09:51;20.00;48.30
47354;DHT22;50657;48.830;2.282;2023-02-05T10:12:35;20.00;48.20
47354;DHT22;50657;48.830;2.282;2023-02-05T10:15:16;20.00;48.20
47354;DHT22;50657;48.830;2.282;2023-02-05T10:17:57;20.00;48.20
47354;DHT22;50657;48.830;2.282;2023-02-05T10:20:51;20.00;48.10
47354;DHT22;50657;48.830;2.282;2023-02-05T10:23:32;20.00;48.00
47354;DHT22;50657;48.830;2.282;2023-02-05T10:26:08;20.00;48.00
47354;DHT22;50657;48.830;2.282;2023-02-05T10:28:53;20.00;47.90
47354;DHT22;50657;48.830;2.282;2023-02-05T10:31:35;20.00;48.40
47354;DHT22;50657;48.830;2.282;2023-02-05T10:34:16;20.00;47.80
47354;DHT22;50657;48.830;2.282;2023-02-05T10:36:47;20.00;47.80
47354;DHT22;50657;48.830;2.282;2023-02-05T10:39:19;20.00;47.70
47354;DHT22;50657;48.830;2.282;2023-02-05T10:41:50;20.00;47.80
47354;DHT22;50657;48.830;2.282;2023-02-05T10:44:25;20.00;47.80
47354;DHT22;50657;48.830;2.282;2023-02-05T10:46:59;20.00;47.70
47354;DHT22;50657;48.830;2.282;2023-02-05T10:49:39;20.00;47.70
47354;DHT22;50657;48.830;2.282;2023-02-05T10:52:11;20.00;47.50
47354;DHT22;50657;48.830;2.282;2023-02-05T10:54:41;20.00;47.40
47354;DHT22;50657;48.830;2.282;2023-02-05T10:57:13;20.00;47.30
47354;DHT22;50657;48.830;2.282;2023-02-05T10:59:50;20.00;47.20
47354;DHT22;50657;48.830;2.282;2023-02-05T11:02:21;20.00;47.10
47354;DHT22;50657;48.830;2.282;2023-02-05T11:04:54;20.00;47.20
47354;DHT22;50657;48.830;2.282;2023-02-05T11:07:26;20.00;47.20
47354;DHT22;50657;48.830;2.282;2023-02-05T11:09:57;20.00;47.20
47354;DHT22;50657;48.830;2.282;2023-02-05T11:12:38;20.00;47.10
47354;DHT22;50657;48.830;2.282;2023-02-05T11:15:17;20.10;47.10
47354;DHT22;50657;48.830;2.282;2023-02-05T11:17:49;20.10;47.00
47354;DHT22;50657;48.830;2.282;2023-02-05T11:20:27;20.10;47.00
47354;DHT22;50657;48.830;2.282;2023-02-05T11:23:14;20.10;46.70
47354;DHT22;50657;48.830;2.282;2023-02-05T11:25:52;20.20;47.10
47354;DHT22;50657;48.830;2.282;2023-02-05T11:28:21;20.20;46.50
47354;DHT22;50657;48.830;2.282;2023-02-05T11:30:52;20.30;46.50
47354;DHT22;50657;48.830;2.282;2023-02-05T11:33:26;20.30;46.40
47354;DHT22;50657;48.830;2.282;2023-02-05T11:35:54;20.40;46.20
47354;DHT22;50657;48.830;2.282;2023-02-05T11:38:32;20.40;46.10
47354;DHT22;50657;48.830;2.282;2023-02-05T11:41:02;20.50;45.90
47354;DHT22;50657;48.830;2.282;2023-02-05T11:43:31;20.50;45.80
47354;DHT22;50657;48.830;2.282;2023-02-05T11:46:02;20.60;45.60
47354;DHT22;50657;48.830;2.282;2023-02-05T11:48:37;20.60;45.40
47354;DHT22;50657;48.830;2.282;2023-02-05T11:51:09;20.70;45.30
47354;DHT22;50657;48.830;2.282;2023-02-05T11:53:49;20.80;45.20
47354;DHT22;50657;48.830;2.282;2023-02-05T11:56:21;20.80;45.00
47354;DHT22;50657;48.830;2.282;2023-02-05T11:58:57;20.90;44.80
47354;DHT22;50657;48.830;2.282;2023-02-05T12:01:27;20.90;44.70
47354;DHT22;50657;48.830;2.282;2023-02-05T12:04:00;20.90;44.60
47354;DHT22;50657;48.830;2.282;2023-02-05T12:06:31;21.00;44.50
47354;DHT22;50657;48.830;2.282;2023-02-05T12:09:00;21.00;44.40
47354;DHT22;50657;48.830;2.282;2023-02-05T12:11:39;21.00;44.30
47354;DHT22;50657;48.830;2.282;2023-02-05T12:14:32;21.10;44.10
47354;DHT22;50657;48.830;2.282;2023-02-05T12:17:18;21.10;44.00
47354;DHT22;50657;48.830;2.282;2023-02-05T12:19:57;21.10;43.90
47354;DHT22;50657;48.830;2.282;2023-02-05T12:22:43;21.20;43.90
47354;DHT22;50657;48.830;2.282;2023-02-05T12:25:22;21.20;43.80
47354;DHT22;50657;48.830;2.282;2023-02-05T12:28:08;21.20;44.30
47354;DHT22;50657;48.830;2.282;2023-02-05T12:30:49;21.30;43.60
47354;DHT22;50657;48.830;2.282;2023-02-05T12:34:00;21.30;43.50
47354;DHT22;50657;48.830;2.282;2023-02-05T12:36:44;21.30;43.30
47354;DHT22;50657;48.830;2.282;2023-02-05T12:39:24;21.30;43.20
47354;DHT22;50657;48.830;2.282;2023-02-05T12:41:59;21.40;43.00
47354;DHT22;50657;48.830;2.282;2023-02-05T12:44:49;21.30;42.90
47354;DHT22;50657;48.830;2.282;2023-02-05T12:47:29;21.40;42.80
47354;DHT22;50657;48.830;2.282;2023-02-05T12:50:11;21.40;42.80
47354;DHT22;50657;48.830;2.282;2023-02-05T12:52:53;21.50;42.80
47354;DHT22;50657;48.830;2.282;2023-02-05T12:55:36;21.50;42.80
47354;DHT22;50657;48.830;2.282;2023-02-05T12:58:10;21.50;42.70
47354;DHT22;50657;48.830;2.282;2023-02-05T13:00:42;21.60;42.70
47354;DHT22;50657;48.830;2.282;2023-02-05T13:03:20;21.60;42.60
47354;DHT22;50657;48.830;2.282;2023-02-05T13:05:52;21.70;42.50
47354;DHT22;50657;48.830;2.282;2023-02-05T13:08:33;21.70;42.40
47354;DHT22;50657;48.830;2.282;2023-02-05T13:11:09;21.70;42.30
47354;DHT22;50657;48.830;2.282;2023-02-05T13:13:46;21.80;42.30
47354;DHT22;50657;48.830;2.282;2023-02-05T13:16:17;21.80;42.10
47354;DHT22;50657;48.830;2.282;2023-02-05T13:18:56;21.80;42.10
47354;DHT22;50657;48.830;2.282;2023-02-05T13:21:26;21.80;41.90
47354;DHT22;50657;48.830;2.282;2023-02-05T13:24:19;21.80;42.40
47354;DHT22;50657;48.830;2.282;2023-02-05T13:27:16;21.90;41.80
47354;DHT22;50657;48.830;2.282;2023-02-05T13:30:04;21.90;41.60
47354;DHT22;50657;48.830;2.282;2023-02-05T13:32:32;21.90;41.60
47354;DHT22;50657;48.830;2.282;2023-02-05T13:35:00;21.90;41.50
47354;DHT22;50657;48.830;2.282;2023-02-05T13:38:07;22.00;41.50
47354;DHT22;50657;48.830;2.282;2023-02-05T13:40:54;22.00;41.30
47354;DHT22;50657;48.830;2.282;2023-02-05T13:44:03;22.10;41.50
47354;DHT22;50657;48.830;2.282;2023-02-05T13:47:04;22.10;41.40
47354;DHT22;50657;48.830;2.282;2023-02-05T13:49:48;22.10;41.30
47354;DHT22;50657;48.830;2.282;2023-02-05T13:52:40;22.20;41.20
47354;DHT22;50657;48.830;2.282;2023-02-05T13:55:27;22.20;41.20
47354;DHT22;50657;48.830;2.282;2023-02-05T13:58:16;22.30;41.20
47354;DHT22;50657;48.830;2.282;2023-02-05T14:00:55;22.30;41.10
47354;DHT22;50657;48.830;2.282;2023-02-05T14:03:31;22.40;41.10
47354;DHT22;50657;48.830;2.282;2023-02-05T14:06:13;22.40;41.00
47354;DHT22;50657;48.830;2.282;2023-02-05T14:08:42;22.50;41.50
47354;DHT22;50657;48.830;2.282;2023-02-05T14:11:10;22.50;40.80
47354;DHT22;50657;48.830;2.282;2023-02-05T14:13:37;22.60;40.70
47354;DHT22;50657;48.830;2.282;2023-02-05T14:16:33;22.60;40.70
47354;DHT22;50657;48.830;2.282;2023-02-05T14:19:13;22.70;40.50
47354;DHT22;50657;48.830;2.282;2023-02-05T14:21:57;22.70;40.40
47354;DHT22;50657;48.830;2.282;2023-02-05T14:24:44;22.70;40.40
47354;DHT22;50657;48.830;2.282;2023-02-05T14:27:48;22.70;40.30
47354;DHT22;50657;48.830;2.282;2023-02-05T14:30:44;22.70;40.10
47354;DHT22;50657;48.830;2.282;2023-02-05T14:33:32;22.70;40.00
47354;DHT22;50657;48.830;2.282;2023-02-05T14:36:37;22.70;39.90
47354;DHT22;50657;48.830;2.282;2023-02-05T14:39:18;22.70;39.90
47354;DHT22;50657;48.830;2.282;2023-02-05T14:41:50;22.70;39.80
47354;DHT22;50657;48.830;2.282;2023-02-05T14:44:23;22.70;39.60
47354;DHT22;50657;48.830;2.282;2023-02-05T14:47:03;22.60;39.50
47354;DHT22;50657;48.830;2.282;2023-02-05T14:49:38;22.70;39.40
47354;DHT22;50657;48.830;2.282;2023-02-05T14:52:18;22.70;39.50
47354;DHT22;50657;48.830;2.282;2023-02-05T14:54:50;22.70;39.40
47354;DHT22;50657;48.830;2.282;2023-02-05T14:57:27;22.80;39.40
47354;DHT22;50657;48.830;2.282;2023-02-05T14:59:58;22.80;39.40
47354;DHT22;50657;48.830;2.282;2023-02-05T15:03:07;22.80;39.20
47354;DHT22;50657;48.830;2.282;2023-02-05T15:05:45;22.90;39.20
47354;DHT22;50657;48.830;2.282;2023-02-05T15:08:16;22.90;39.20
47354;DHT22;50657;48.830;2.282;2023-02-05T15:10:50;22.80;38.90
47354;DHT22;50657;48.830;2.282;2023-02-05T15:13:22;22.80;38.80
47354;DHT22;50657;48.830;2.282;2023-02-05T15:16:17;22.80;38.50
47354;DHT22;50657;48.830;2.282;2023-02-05T15:18:48;22.80;38.40
47354;DHT22;50657;48.830;2.282;2023-02-05T15:21:21;22.70;38.30
47354;DHT22;50657;48.830;2.282;2023-02-05T15:23:52;22.70;38.10
47354;DHT22;50657;48.830;2.282;2023-02-05T15:26:26;22.70;38.00
47354;DHT22;50657;48.830;2.282;2023-02-05T15:29:00;22.70;37.70
47354;DHT22;50657;48.830;2.282;2023-02-05T15:31:32;22.70;37.40
47354;DHT22;50657;48.830;2.282;2023-02-05T15:34:13;22.70;37.80
47354;DHT22;50657;48.830;2.282;2023-02-05T15:36:49;22.60;37.90
47354;DHT22;50657;48.830;2.282;2023-02-05T15:39:25;22.60;37.80
47354;DHT22;50657;48.830;2.282;2023-02-05T15:41:57;22.60;38.00
47354;DHT22;50657;48.830;2.282;2023-02-05T15:44:29;22.60;38.00
47354;DHT22;50657;48.830;2.282;2023-02-05T15:46:59;22.50;38.70
47354;DHT22;50657;48.830;2.282;2023-02-05T15:49:35;22.50;38.20
47354;DHT22;50657;48.830;2.282;2023-02-05T15:52:02;22.50;38.20
47354;DHT22;50657;48.830;2.282;2023-02-05T15:54:33;22.50;38.20
47354;DHT22;50657;48.830;2.282;2023-02-05T15:57:03;22.50;38.10
47354;DHT22;50657;48.830;2.282;2023-02-05T15:59:32;22.40;38.00
47354;DHT22;50657;48.830;2.282;2023-02-05T16:02:03;22.40;38.00
47354;DHT22;50657;48.830;2.282;2023-02-05T16:04:32;22.40;38.00
47354;DHT22;50657;48.830;2.282;2023-02-05T16:07:00;22.40;38.00
47354;DHT22;50657;48.830;2.282;2023-02-05T16:09:29;22.30;37.90